Time;durP1;ratioP1;P1;durP2;ratioP2;P2;SDS_P1;SDS_P2;PMS_P1;PMS_P2;Temp;Humidity;BMP_temperature;BMP_pressure;BME280_temperature;BME280_humidity;BME280_pressure;Samples;Min_cycle;Max_cycle;Signal;HPM_P1;HPM_P2
2024/02/25 00:01:44;;;;;;;8.10;4.73;;;2.90;99.90;;;;;;5033110;28;20232;-72
2024/02/25 00:04:10;;;;;;;5.13;4.40;;;2.90;99.90;;;;;;5032923;28;20170;-72
2024/02/25 00:06:35;;;;;;;5.70;4.63;;;2.90;99.90;;;;;;5031529;28;20170;-72
2024/02/25 00:09:04;;;;;;;5.00;4.30;;;2.90;99.90;;;;;;5032085;28;20210;-71
2024/02/25 00:11:30;;;;;;;4.37;3.90;;;2.90;99.90;;;;;;5032438;28;20175;-71
2024/02/25 00:13:55;;;;;;;4.63;3.83;;;2.90;99.90;;;;;;5032488;28;20416;-72
2024/02/25 00:16:21;;;;;;;4.10;3.70;;;2.90;99.90;;;;;;5032011;28;20640;-71
2024/02/25 00:18:47;;;;;;;5.20;3.50;;;2.90;99.90;;;;;;5031962;28;20194;-72
2024/02/25 00:21:12;;;;;;;4.80;4.30;;;2.90;99.90;;;;;;5031888;28;20428;-72
2024/02/25 00:23:38;;;;;;;6.93;4.67;;;2.90;99.90;;;;;;5032429;28;20178;-71
2024/02/25 00:26:04;;;;;;;5.27;4.77;;;2.90;99.90;;;;;;5032309;28;20253;-71
2024/02/25 00:28:29;;;;;;;3.80;3.40;;;2.90;99.90;;;;;;5031892;28;20293;-72
2024/02/25 00:30:55;;;;;;;3.40;3.10;;;2.80;99.90;;;;;;5032164;28;20189;-72
2024/02/25 00:33:20;;;;;;;3.53;3.23;;;2.80;99.90;;;;;;5032230;28;20174;-71
2024/02/25 00:35:46;;;;;;;3.60;3.27;;;2.80;99.90;;;;;;5031926;28;20193;-72
2024/02/25 00:38:11;;;;;;;4.00;3.60;;;2.80;99.90;;;;;;5031256;28;20285;-73
2024/02/25 00:40:37;;;;;;;4.17;3.80;;;2.80;99.90;;;;;;5032174;28;20176;-71
2024/02/25 00:43:03;;;;;;;3.90;3.23;;;2.80;99.90;;;;;;5032201;28;20272;-71
2024/02/25 00:45:28;;;;;;;3.40;3.03;;;2.70;99.90;;;;;;5030604;28;21029;-72
2024/02/25 00:47:54;;;;;;;4.53;3.93;;;2.70;99.90;;;;;;5030848;28;20256;-72
2024/02/25 00:50:20;;;;;;;5.23;2.97;;;2.70;99.90;;;;;;5032054;28;20170;-72
2024/02/25 00:52:45;;;;;;;4.00;3.40;;;2.70;99.90;;;;;;5031859;28;20174;-72
2024/02/25 00:55:11;;;;;;;2.83;2.60;;;2.60;99.90;;;;;;5030709;28;20220;-73
2024/02/25 00:57:38;;;;;;;3.50;3.20;;;2.60;99.90;;;;;;5030984;28;20235;-72
2024/02/25 01:00:05;;;;;;;3.80;3.30;;;2.60;99.90;;;;;;5031962;28;20173;-73
2024/02/25 01:02:30;;;;;;;3.50;2.57;;;2.60;99.90;;;;;;5030645;28;20504;-72
2024/02/25 01:04:56;;;;;;;3.23;2.93;;;2.60;99.90;;;;;;5031823;28;20551;-73
2024/02/25 01:07:21;;;;;;;2.93;2.73;;;2.60;99.90;;;;;;5030996;28;20253;-73
2024/02/25 01:09:47;;;;;;;2.80;2.40;;;2.60;99.90;;;;;;5031844;28;20167;-73
2024/02/25 01:12:12;;;;;;;3.20;2.90;;;2.60;99.90;;;;;;5035464;28;20253;-73
2024/02/25 01:14:41;;;;;;;4.20;2.90;;;2.60;99.90;;;;;;5035522;28;20172;-76
2024/02/25 01:17:06;;;;;;;2.50;2.30;;;2.60;99.90;;;;;;5035129;28;20717;-73
2024/02/25 01:19:32;;;;;;;2.97;2.63;;;2.70;99.90;;;;;;5035789;28;20444;-72
2024/02/25 01:21:58;;;;;;;4.27;2.67;;;2.80;99.90;;;;;;5035869;28;20201;-72
2024/02/25 01:24:23;;;;;;;3.73;2.50;;;2.80;99.90;;;;;;5035617;28;20186;-72
2024/02/25 01:26:49;;;;;;;2.43;2.13;;;2.90;99.90;;;;;;5034977;28;20224;-72
2024/02/25 01:29:14;;;;;;;2.63;2.23;;;2.90;99.90;;;;;;5035479;28;20209;-72
2024/02/25 01:31:44;;;;;;;3.03;2.70;;;2.90;99.90;;;;;;5035535;28;20216;-73
2024/02/25 01:34:10;;;;;;;3.10;2.37;;;2.90;99.90;;;;;;5035483;28;20178;-72
2024/02/25 01:36:36;;;;;;;3.27;2.43;;;2.80;99.90;;;;;;5034731;28;20462;-73
2024/02/25 01:39:03;;;;;;;4.10;3.17;;;2.80;99.90;;;;;;5035230;28;20437;-72
2024/02/25 01:41:28;;;;;;;6.13;3.17;;;2.80;99.90;;;;;;5035391;28;20425;-72
2024/02/25 01:43:54;;;;;;;3.20;2.83;;;2.80;99.90;;;;;;5035196;28;20935;-72
2024/02/25 01:46:19;;;;;;;3.07;2.60;;;2.80;99.90;;;;;;5034990;28;20202;-72
2024/02/25 01:48:50;;;;;;;6.63;2.50;;;2.70;99.90;;;;;;5034605;28;20202;-71
2024/02/25 01:51:17;;;;;;;3.73;3.07;;;2.70;99.90;;;;;;5035282;28;20167;-72
2024/02/25 01:53:44;;;;;;;2.80;2.60;;;2.70;99.90;;;;;;5035074;28;20495;-72
2024/02/25 01:56:09;;;;;;;3.10;2.70;;;2.70;99.90;;;;;;5034975;28;20944;-72
2024/02/25 01:58:35;;;;;;;3.30;2.40;;;2.70;99.90;;;;;;5034237;28;20498;-72
2024/02/25 02:01:01;;;;;;;2.90;2.60;;;2.70;99.90;;;;;;5034963;28;20175;-72
2024/02/25 02:03:27;;;;;;;3.23;3.03;;;2.70;99.90;;;;;;5034889;28;20178;-72
2024/02/25 02:05:52;;;;;;;4.20;3.37;;;2.70;99.90;;;;;;5034902;28;20159;-72
2024/02/25 02:08:18;;;;;;;3.40;2.90;;;2.60;99.90;;;;;;5033998;28;20464;-72
2024/02/25 02:10:43;;;;;;;3.30;3.00;;;2.60;99.90;;;;;;5034731;28;20175;-72
2024/02/25 02:13:09;;;;;;;3.80;3.43;;;2.60;99.90;;;;;;5035027;28;20232;-72
2024/02/25 02:15:34;;;;;;;3.13;2.83;;;2.60;99.90;;;;;;5034759;28;20237;-72
2024/02/25 02:18:01;;;;;;;3.80;3.27;;;2.50;99.90;;;;;;5033811;28;20280;-72
2024/02/25 02:20:28;;;;;;;2.90;2.50;;;2.50;99.90;;;;;;5034671;28;20220;-72
2024/02/25 02:22:54;;;;;;;4.10;2.53;;;2.60;99.90;;;;;;5033940;28;20490;-72
2024/02/25 02:25:20;;;;;;;3.57;3.20;;;2.60;99.90;;;;;;5034567;28;20417;-72
2024/02/25 02:27:46;;;;;;;3.43;3.07;;;2.60;99.90;;;;;;5033629;28;20457;-72
2024/02/25 02:30:12;;;;;;;2.90;2.70;;;2.50;99.90;;;;;;5034471;28;20658;-72
2024/02/25 02:32:38;;;;;;;2.90;2.70;;;2.50;99.90;;;;;;5034437;28;20198;-72
2024/02/25 02:35:05;;;;;;;2.80;2.60;;;2.50;99.90;;;;;;5033020;28;20421;-72
2024/02/25 02:37:31;;;;;;;3.37;2.83;;;2.50;99.90;;;;;;5033450;28;20941;-72
2024/02/25 02:39:57;;;;;;;3.87;3.47;;;2.40;99.90;;;;;;5034282;28;20424;-73
2024/02/25 02:42:22;;;;;;;3.77;3.20;;;2.30;99.90;;;;;;5034278;28;20413;-72
2024/02/25 02:44:50;;;;;;;3.07;2.77;;;2.30;99.90;;;;;;5034165;28;20421;-72
2024/02/25 02:47:17;;;;;;;3.17;2.97;;;2.20;99.90;;;;;;5033516;28;20166;-72
2024/02/25 02:49:43;;;;;;;5.37;3.30;;;2.20;99.90;;;;;;5034121;28;20972;-72
2024/02/25 02:52:09;;;;;;;3.37;3.07;;;2.20;99.90;;;;;;5034010;28;20500;-72
2024/02/25 02:54:34;;;;;;;2.90;2.70;;;2.30;99.90;;;;;;5033991;28;20178;-72
2024/02/25 02:57:00;;;;;;;3.30;2.87;;;2.30;99.90;;;;;;5033144;28;20245;-72
2024/02/25 02:59:25;;;;;;;2.60;2.40;;;2.30;99.90;;;;;;5033834;28;20739;-72
2024/02/25 03:01:52;;;;;;;2.80;2.60;;;2.30;99.90;;;;;;5033936;28;20215;-72
2024/02/25 03:04:18;;;;;;;2.80;2.60;;;2.30;99.90;;;;;;5033927;28;20201;-72
2024/02/25 03:06:44;;;;;;;3.43;3.20;;;2.30;99.90;;;;;;5033146;28;20421;-72
2024/02/25 03:09:10;;;;;;;3.87;2.50;;;2.30;99.90;;;;;;5033524;28;20542;-72
2024/02/25 03:11:35;;;;;;;2.83;2.47;;;2.30;99.90;;;;;;5033857;28;20827;-72
2024/02/25 03:14:01;;;;;;;4.17;3.00;;;2.20;99.90;;;;;;5034005;28;20166;-72
2024/02/25 03:16:27;;;;;;;5.00;3.37;;;2.20;99.90;;;;;;5033078;28;20637;-73
2024/02/25 03:18:52;;;;;;;2.40;2.20;;;2.20;99.90;;;;;;5033469;28;20201;-72
2024/02/25 03:21:18;;;;;;;3.50;2.67;;;2.20;99.90;;;;;;5033441;28;20309;-72
2024/02/25 03:23:43;;;;;;;4.43;4.03;;;2.20;99.90;;;;;;5033396;28;20174;-72
2024/02/25 03:26:16;;;;;;;3.43;3.13;;;2.10;99.90;;;;;;5033346;28;20201;-72
2024/02/25 03:28:42;;;;;;;3.37;3.07;;;2.10;99.90;;;;;;5032771;28;20205;-72
2024/02/25 03:31:08;;;;;;;3.00;2.70;;;2.10;99.90;;;;;;5033300;28;20417;-72
2024/02/25 03:33:34;;;;;;;3.10;2.80;;;2.10;99.90;;;;;;5032798;28;20535;-72
2024/02/25 03:35:59;;;;;;;3.57;3.27;;;2.00;99.90;;;;;;5032711;28;20416;-72
2024/02/25 03:38:25;;;;;;;4.13;3.73;;;2.00;99.90;;;;;;5039565;28;20194;-72
2024/02/25 03:40:50;;;;;;;3.33;3.07;;;2.00;99.90;;;;;;5053085;28;20177;-72
2024/02/25 03:43:17;;;;;;;4.63;3.23;;;2.00;99.90;;;;;;5053058;28;20169;-72
2024/02/25 03:45:42;;;;;;;3.43;3.10;;;2.00;99.90;;;;;;5053012;28;20569;-71
2024/02/25 03:48:08;;;;;;;3.13;2.93;;;2.00;99.90;;;;;;5052095;28;20448;-72
2024/02/25 03:50:34;;;;;;;3.40;3.10;;;2.00;99.90;;;;;;5052796;28;20174;-72
2024/02/25 03:52:59;;;;;;;3.33;3.03;;;2.00;99.90;;;;;;5052759;28;20435;-72
2024/02/25 03:55:25;;;;;;;5.53;3.80;;;2.00;99.90;;;;;;5052813;28;20231;-72
2024/02/25 03:57:51;;;;;;;4.27;2.90;;;2.00;99.90;;;;;;5051958;28;20213;-72
2024/02/25 04:00:17;;;;;;;3.10;2.67;;;1.90;99.90;;;;;;5052701;28;20513;-72
2024/02/25 04:02:45;;;;;;;5.13;3.40;;;1.90;99.90;;;;;;5052653;28;20447;-72
2024/02/25 04:05:12;;;;;;;5.23;3.50;;;1.90;99.90;;;;;;5052553;28;20424;-72
2024/02/25 04:07:37;;;;;;;4.33;2.80;;;1.90;99.90;;;;;;5051506;28;20424;-72
2024/02/25 04:10:04;;;;;;;3.73;3.13;;;1.90;99.90;;;;;;5052501;28;20997;-72
2024/02/25 04:12:30;;;;;;;3.40;3.10;;;1.90;99.90;;;;;;5052637;28;20201;-72
2024/02/25 04:14:55;;;;;;;3.20;2.90;;;1.90;99.90;;;;;;5052390;28;20458;-72
2024/02/25 04:17:23;;;;;;;3.30;3.10;;;1.90;99.90;;;;;;5051632;28;20170;-72
2024/02/25 04:19:52;;;;;;;3.13;2.83;;;1.90;99.90;;;;;;5052249;28;20169;-72
2024/02/25 04:22:17;;;;;;;6.57;3.40;;;1.90;99.90;;;;;;5052308;28;20827;-72
2024/02/25 04:24:43;;;;;;;3.63;3.03;;;1.90;99.90;;;;;;5052150;28;20428;-72
2024/02/25 04:27:08;;;;;;;3.23;2.40;;;2.00;99.90;;;;;;5051575;28;20226;-72
2024/02/25 04:29:35;;;;;;;3.60;3.30;;;2.00;99.90;;;;;;5052041;28;20205;-72
2024/02/25 04:32:01;;;;;;;2.60;2.40;;;2.00;99.90;;;;;;5052185;28;20692;-72
2024/02/25 04:34:27;;;;;;;3.60;2.63;;;2.00;99.90;;;;;;5052001;28;20503;-72
2024/02/25 04:36:52;;;;;;;4.87;4.00;;;2.00;99.90;;;;;;5051309;28;20177;-72
2024/02/25 04:39:18;;;;;;;4.00;3.00;;;2.00;99.90;;;;;;5052076;28;20204;-72
2024/02/25 04:41:43;;;;;;;5.60;3.40;;;2.00;99.90;;;;;;5052106;28;20189;-72
2024/02/25 04:44:10;;;;;;;3.50;3.20;;;1.90;99.90;;;;;;5051960;28;20598;-72
2024/02/25 04:46:36;;;;;;;3.33;3.03;;;2.00;99.90;;;;;;5051060;28;20169;-72
2024/02/25 04:49:02;;;;;;;6.30;3.57;;;2.00;99.90;;;;;;5050130;28;20459;-72
2024/02/25 04:51:27;;;;;;;3.77;3.47;;;2.00;99.90;;;;;;5051948;28;20611;-72
2024/02/25 04:53:57;;;;;;;4.37;3.23;;;2.00;99.90;;;;;;5051956;28;20420;-72
2024/02/25 04:56:25;;;;;;;3.50;3.07;;;2.00;99.90;;;;;;5051467;28;20161;-73
2024/02/25 04:58:51;;;;;;;3.67;3.33;;;2.00;99.90;;;;;;5051679;28;20463;-72
2024/02/25 05:01:16;;;;;;;5.93;3.70;;;2.00;99.90;;;;;;5052005;28;20438;-72
2024/02/25 05:03:42;;;;;;;3.87;3.57;;;2.00;99.90;;;;;;5051855;28;20332;-72
2024/02/25 05:06:07;;;;;;;3.13;2.80;;;2.00;99.90;;;;;;5051772;28;20173;-72
2024/02/25 05:08:33;;;;;;;4.10;3.33;;;2.00;99.90;;;;;;5050801;28;20209;-72
2024/02/25 05:10:58;;;;;;;3.77;3.33;;;2.00;99.90;;;;;;5051859;28;20224;-72
2024/02/25 05:13:24;;;;;;;4.23;3.20;;;2.00;99.90;;;;;;5051830;28;20198;-72
2024/02/25 05:15:49;;;;;;;4.50;3.30;;;2.00;99.90;;;;;;5051692;28;20223;-72
2024/02/25 05:18:15;;;;;;;3.73;3.43;;;2.00;99.90;;;;;;5050838;28;20239;-72
2024/02/25 05:20:40;;;;;;;3.20;2.90;;;2.00;99.90;;;;;;5051638;28;20230;-72
2024/02/25 05:23:06;;;;;;;3.93;3.50;;;2.00;99.90;;;;;;5051631;28;20178;-72
2024/02/25 05:25:31;;;;;;;4.00;3.70;;;2.00;99.90;;;;;;5051698;28;20169;-72
2024/02/25 05:27:57;;;;;;;4.77;4.30;;;2.00;99.90;;;;;;5050816;28;20742;-72
2024/02/25 05:30:22;;;;;;;4.40;3.33;;;2.10;99.90;;;;;;5051609;28;20256;-72
2024/02/25 05:32:48;;;;;;;3.60;3.30;;;2.00;99.90;;;;;;5051563;28;20184;-72
2024/02/25 05:35:14;;;;;;;3.97;3.60;;;2.00;99.90;;;;;;5051491;28;20174;-72
2024/02/25 05:37:39;;;;;;;3.87;3.50;;;2.00;99.90;;;;;;5050670;28;20182;-73
2024/02/25 05:40:05;;;;;;;3.57;3.27;;;2.00;99.90;;;;;;5051533;28;20197;-72
2024/02/25 05:42:31;;;;;;;3.80;3.50;;;2.00;99.90;;;;;;5051445;28;20549;-72
2024/02/25 05:44:57;;;;;;;3.57;3.27;;;2.00;99.90;;;;;;5051406;28;20494;-72
2024/02/25 05:47:22;;;;;;;4.90;3.80;;;2.00;99.90;;;;;;5050429;28;20234;-72
2024/02/25 05:49:48;;;;;;;3.80;3.37;;;2.00;99.90;;;;;;5051255;28;20732;-73
2024/02/25 05:52:14;;;;;;;6.67;4.37;;;1.90;99.90;;;;;;5051377;28;20180;-72
2024/02/25 05:54:39;;;;;;;4.17;3.77;;;1.90;99.90;;;;;;5051350;28;20177;-72
2024/02/25 05:57:05;;;;;;;3.23;3.03;;;1.90;99.90;;;;;;5050582;28;20655;-72
2024/02/25 05:59:31;;;;;;;4.00;3.60;;;1.80;99.90;;;;;;5054945;28;20240;-72
2024/02/25 06:01:57;;;;;;;3.70;3.40;;;1.80;99.90;;;;;;5055320;28;20169;-72
2024/02/25 06:04:22;;;;;;;3.47;3.10;;;1.80;99.90;;;;;;5054869;28;20984;-72
2024/02/25 06:06:52;;;;;;;4.00;3.70;;;1.80;99.90;;;;;;5054190;28;20557;-72
2024/02/25 06:09:18;;;;;;;3.47;3.17;;;1.80;99.90;;;;;;5054645;28;20258;-73
2024/02/25 06:11:44;;;;;;;4.47;3.53;;;1.80;99.90;;;;;;5054766;28;20431;-72
2024/02/25 06:14:09;;;;;;;4.30;3.70;;;1.80;99.90;;;;;;5054593;28;20170;-72
2024/02/25 06:16:35;;;;;;;4.20;3.90;;;1.80;99.90;;;;;;5053827;28;20948;-72
2024/02/25 06:19:00;;;;;;;5.27;3.73;;;1.80;99.90;;;;;;5054607;28;20194;-72
2024/02/25 06:21:26;;;;;;;4.33;3.67;;;1.80;99.90;;;;;;5054582;28;20239;-72
2024/02/25 06:23:52;;;;;;;3.80;3.50;;;1.80;99.90;;;;;;5054530;28;20525;-73
2024/02/25 06:26:17;;;;;;;3.63;3.33;;;1.80;99.90;;;;;;5054136;28;20346;-72
2024/02/25 06:28:43;;;;;;;3.60;3.30;;;1.80;99.90;;;;;;5053892;28;20209;-72
2024/02/25 06:31:11;;;;;;;4.10;3.33;;;1.80;99.90;;;;;;5054317;28;20181;-72
2024/02/25 06:33:37;;;;;;;4.00;3.60;;;1.80;99.90;;;;;;5054299;28;20225;-72
2024/02/25 06:36:02;;;;;;;4.33;4.00;;;1.90;99.90;;;;;;5054335;28;20420;-72
2024/02/25 06:38:28;;;;;;;3.17;2.90;;;1.90;99.90;;;;;;5053490;28;20198;-72
2024/02/25 06:40:53;;;;;;;3.60;3.00;;;1.90;99.90;;;;;;5054222;28;20181;-72
2024/02/25 06:43:19;;;;;;;3.53;3.23;;;1.90;99.90;;;;;;5054153;28;20184;-72
2024/02/25 06:45:45;;;;;;;3.30;3.00;;;2.00;99.90;;;;;;5054070;28;20248;-72
2024/02/25 06:48:11;;;;;;;4.10;3.47;;;2.00;99.90;;;;;;5053172;28;20201;-72
2024/02/25 06:50:36;;;;;;;3.80;3.40;;;2.00;99.90;;;;;;5054042;28;20427;-72
2024/02/25 06:53:03;;;;;;;3.93;3.63;;;2.10;99.90;;;;;;5054061;28;20169;-72
2024/02/25 06:55:28;;;;;;;3.70;3.40;;;2.40;99.90;;;;;;5053999;28;20158;-73
2024/02/25 06:57:54;;;;;;;3.87;3.47;;;2.70;99.90;;;;;;5052976;28;20505;-72
2024/02/25 07:00:19;;;;;;;3.33;3.07;;;2.90;99.90;;;;;;5053892;28;20699;-73
2024/02/25 07:02:45;;;;;;;4.57;3.10;;;3.30;99.90;;;;;;5053925;28;20535;-72
2024/02/25 07:05:10;;;;;;;3.87;3.57;;;3.50;99.90;;;;;;5053786;28;20170;-72
2024/02/25 07:07:39;;;;;;;5.10;3.07;;;3.80;99.90;;;;;;5052858;28;20272;-72
2024/02/25 07:10:06;;;;;;;4.63;3.07;;;4.20;99.90;;;;;;5053446;28;20170;-72
2024/02/25 07:12:32;;;;;;;4.00;3.70;;;4.60;99.90;;;;;;5053532;28;20781;-72
2024/02/25 07:14:57;;;;;;;3.40;2.63;;;4.90;99.90;;;;;;5053464;28;20419;-72
2024/02/25 07:17:23;;;;;;;5.10;4.07;;;5.20;99.90;;;;;;5051332;28;20177;-73
2024/02/25 07:19:48;;;;;;;4.67;3.07;;;5.60;99.90;;;;;;5053433;28;20181;-73
2024/02/25 07:22:14;;;;;;;2.80;2.50;;;5.90;99.90;;;;;;5053338;28;20170;-73
2024/02/25 07:24:41;;;;;;;3.83;3.00;;;6.20;99.90;;;;;;5053338;28;20177;-73
2024/02/25 07:27:07;;;;;;;3.70;2.87;;;6.40;99.90;;;;;;5052612;28;20176;-73
2024/02/25 07:29:32;;;;;;;4.30;3.20;;;6.40;99.90;;;;;;5053029;28;20542;-73
2024/02/25 07:31:58;;;;;;;5.17;4.17;;;6.30;99.90;;;;;;5053184;28;20162;-73
2024/02/25 07:34:24;;;;;;;6.63;4.10;;;6.30;99.90;;;;;;5053156;28;20174;-72
2024/02/25 07:36:50;;;;;;;6.33;4.87;;;6.20;99.90;;;;;;5052418;28;20176;-72
2024/02/25 07:39:16;;;;;;;6.60;4.77;;;6.00;99.90;;;;;;5052991;28;20440;-72
2024/02/25 07:41:43;;;;;;;4.23;3.00;;;5.70;99.90;;;;;;5051732;28;20180;-72
2024/02/25 07:44:10;;;;;;;2.97;2.50;;;5.60;99.90;;;;;;5052863;28;20511;-72
2024/02/25 07:46:36;;;;;;;3.07;2.60;;;5.70;99.90;;;;;;5052122;28;20474;-72
2024/02/25 07:49:02;;;;;;;2.63;2.43;;;5.70;99.90;;;;;;5052720;28;20495;-73
2024/02/25 07:51:28;;;;;;;2.80;2.03;;;5.70;99.90;;;;;;5052779;28;20227;-72
2024/02/25 07:53:53;;;;;;;2.73;1.70;;;5.70;99.90;;;;;;5052736;28;20914;-73
2024/02/25 07:56:23;;;;;;;3.57;3.27;;;5.60;99.90;;;;;;5052411;28;20169;-73
2024/02/25 07:58:48;;;;;;;5.10;3.27;;;5.60;99.90;;;;;;5052216;28;20205;-72
2024/02/25 08:01:14;;;;;;;3.47;2.70;;;5.70;99.90;;;;;;5052739;28;20507;-73
2024/02/25 08:03:40;;;;;;;4.37;2.37;;;5.80;99.90;;;;;;5052647;28;20696;-72
2024/02/25 08:06:05;;;;;;;2.43;2.23;;;5.80;99.90;;;;;;5052532;28;20172;-73
2024/02/25 08:08:31;;;;;;;2.27;2.10;;;5.80;99.90;;;;;;5051657;28;20198;-73
2024/02/25 08:10:57;;;;;;;2.40;2.17;;;5.70;99.90;;;;;;5052541;28;20178;-73
2024/02/25 08:13:22;;;;;;;3.10;2.20;;;5.70;99.90;;;;;;5052460;28;20253;-73
2024/02/25 08:15:48;;;;;;;2.47;2.17;;;5.70;99.90;;;;;;5052311;28;20647;-73
2024/02/25 08:18:14;;;;;;;5.40;2.10;;;5.70;99.90;;;;;;5051576;28;20272;-73
2024/02/25 08:20:39;;;;;;;3.30;2.10;;;5.70;99.90;;;;;;5051761;28;20500;-73
2024/02/25 08:23:05;;;;;;;2.33;2.13;;;5.80;99.90;;;;;;5052249;28;20185;-73
2024/02/25 08:25:30;;;;;;;3.53;2.10;;;5.90;99.90;;;;;;5052343;28;20173;-73
2024/02/25 08:27:56;;;;;;;3.20;2.50;;;6.00;99.90;;;;;;5051324;28;20205;-72
2024/02/25 08:30:22;;;;;;;2.20;2.00;;;6.30;99.90;;;;;;5052163;28;20174;-72
2024/02/25 08:32:48;;;;;;;2.07;1.97;;;6.50;99.90;;;;;;5043389;28;20258;-72
2024/02/25 08:35:14;;;;;;;1.80;1.70;;;6.40;99.90;;;;;;5040239;28;20985;-72
2024/02/25 08:37:39;;;;;;;1.80;1.70;;;6.60;99.90;;;;;;5039995;28;20240;-72
2024/02/25 08:40:06;;;;;;;2.70;2.50;;;6.60;99.90;;;;;;5032149;28;20246;-71
2024/02/25 08:42:31;;;;;;;4.10;2.37;;;6.60;99.90;;;;;;5032083;28;20515;-70
2024/02/25 08:44:57;;;;;;;2.23;2.03;;;6.80;99.90;;;;;;5031978;28;20488;-71
2024/02/25 08:47:23;;;;;;;3.07;1.90;;;6.90;99.90;;;;;;5031075;28;20170;-71
2024/02/25 08:49:49;;;;;;;2.20;2.07;;;7.00;99.90;;;;;;5033656;28;20193;-71
2024/02/25 08:52:14;;;;;;;2.70;1.80;;;7.00;99.90;;;;;;5040821;28;20632;-72
2024/02/25 08:54:40;;;;;;;2.43;2.00;;;7.00;99.90;;;;;;5048776;28;20425;-72
2024/02/25 08:57:06;;;;;;;1.77;1.63;;;6.90;99.90;;;;;;5051042;28;20219;-72
2024/02/25 08:59:31;;;;;;;2.73;1.70;;;7.00;99.90;;;;;;5051737;28;20566;-72
2024/02/25 09:01:57;;;;;;;2.47;1.77;;;6.90;99.90;;;;;;5051706;28;20177;-72
2024/02/25 09:04:27;;;;;;;3.77;3.00;;;7.00;99.90;;;;;;5050931;28;20183;-72
2024/02/25 09:06:56;;;;;;;1.97;1.80;;;7.00;99.90;;;;;;5051112;28;20170;-71
2024/02/25 09:09:21;;;;;;;3.10;1.70;;;6.90;99.90;;;;;;5051559;28;20551;-72
2024/02/25 09:11:47;;;;;;;1.83;1.73;;;6.90;99.90;;;;;;5051714;28;20499;-72
2024/02/25 09:14:12;;;;;;;2.27;2.07;;;6.90;99.90;;;;;;5051690;28;20165;-72
2024/02/25 09:16:38;;;;;;;2.13;1.73;;;7.10;99.90;;;;;;5050908;28;20170;-72
2024/02/25 09:19:04;;;;;;;1.60;1.50;;;7.20;99.90;;;;;;5051595;28;20189;-72
2024/02/25 09:21:30;;;;;;;1.43;1.33;;;7.50;99.90;;;;;;5051736;28;20257;-72
2024/02/25 09:23:56;;;;;;;3.67;1.77;;;7.60;99.90;;;;;;5051609;28;20422;-72
2024/02/25 09:26:22;;;;;;;1.40;1.30;;;7.60;99.90;;;;;;5050033;28;20416;-72
2024/02/25 09:28:48;;;;;;;2.20;1.90;;;7.70;99.90;;;;;;5051191;28;20197;-72
2024/02/25 09:31:18;;;;;;;3.97;2.00;;;7.60;99.90;;;;;;5051532;28;20248;-72
2024/02/25 09:33:44;;;;;;;2.37;2.17;;;7.70;99.90;;;;;;5054445;28;20162;-72
2024/02/25 09:36:09;;;;;;;2.70;1.83;;;7.70;99.90;;;;;;5055370;28;20937;-72
2024/02/25 09:38:35;;;;;;;2.70;1.97;;;7.90;99.90;;;;;;5053237;28;20470;-72
2024/02/25 09:41:01;;;;;;;1.90;1.77;;;8.20;99.90;;;;;;5055246;28;20166;-72
2024/02/25 09:43:27;;;;;;;1.80;1.70;;;8.40;99.90;;;;;;5055230;28;20226;-72
2024/02/25 09:45:56;;;;;;;3.20;1.57;;;8.40;99.90;;;;;;5055112;28;20507;-72
2024/02/25 09:48:22;;;;;;;1.40;1.30;;;8.30;99.90;;;;;;5054326;28;20695;-72
2024/02/25 09:50:50;;;;;;;2.03;1.87;;;8.50;99.90;;;;;;5055147;28;20929;-72
2024/02/25 09:53:16;;;;;;;2.13;1.97;;;8.80;99.90;;;;;;5055082;28;20416;-72
2024/02/25 09:55:44;;;;;;;3.70;2.10;;;8.90;99.90;;;;;;5054997;28;20415;-72
2024/02/25 09:58:09;;;;;;;1.60;1.50;;;9.30;99.90;;;;;;5053950;28;20213;-72
2024/02/25 10:00:35;;;;;;;1.90;1.70;;;9.90;99.90;;;;;;5054856;28;20581;-72
2024/02/25 10:03:01;;;;;;;1.40;1.30;;;10.30;99.90;;;;;;5054938;28;20660;-72
2024/02/25 10:05:27;;;;;;;1.10;1.10;;;10.70;99.90;;;;;;5054937;28;20642;-72
2024/02/25 10:08:11;;;;;;;1.57;1.47;;;11.90;99.90;;;;;;5054157;28;20197;-72
2024/02/25 10:10:40;;;;;;;1.47;1.37;;;13.30;96.00;;;;;;5054953;28;20177;-72
2024/02/25 10:13:05;;;;;;;1.80;1.70;;;15.20;84.80;;;;;;5054711;28;20925;-72
2024/02/25 10:15:32;;;;;;;1.87;1.77;;;16.00;72.60;;;;;;5054689;28;20469;-72
2024/02/25 10:17:57;;;;;;;1.67;1.57;;;15.60;70.00;;;;;;5053891;28;20236;-72
2024/02/25 10:20:23;;;;;;;1.17;1.07;;;15.00;70.30;;;;;;5054587;28;20412;-72
2024/02/25 10:23:05;;;;;;;0.80;0.80;;;14.40;72.60;;;;;;5054553;28;20170;-72
2024/02/25 10:25:31;;;;;;;1.50;1.40;;;13.70;71.80;;;;;;5054621;28;20169;-72
2024/02/25 10:28:16;;;;;;;0.77;0.77;;;14.00;72.50;;;;;;5053597;28;20991;-72
2024/02/25 10:31:05;;;;;;;1.23;1.10;;;14.40;66.70;;;;;;5054535;28;20165;-72
2024/02/25 10:33:32;;;;;;;1.30;1.30;;;15.00;68.80;;;;;;5054491;28;20828;-72
2024/02/25 10:36:08;;;;;;;1.30;0.93;;;16.10;62.70;;;;;;5054392;28;20416;-71
2024/02/25 10:38:41;;;;;;;1.43;1.10;;;16.00;58.50;;;;;;5053679;28;20852;-72
2024/02/25 10:41:08;;;;;;;1.30;0.90;;;16.00;56.80;;;;;;5054461;28;20412;-71
2024/02/25 10:43:36;;;;;;;1.23;1.13;;;16.40;56.40;;;;;;5053684;28;20849;-74
2024/02/25 10:46:28;;;;;;;1.20;1.10;;;16.60;55.40;;;;;;5054103;28;20447;-73
2024/02/25 10:48:56;;;;;;;1.00;1.00;;;17.20;52.60;;;;;;5053987;28;20498;-70
2024/02/25 10:51:23;;;;;;;2.10;0.80;;;17.40;51.10;;;;;;5053892;28;20444;-72
2024/02/25 10:53:49;;;;;;;1.00;1.00;;;17.30;50.70;;;;;;5053921;28;20426;-72
2024/02/25 10:56:16;;;;;;;1.20;1.10;;;17.10;49.70;;;;;;5053526;28;20503;-72
2024/02/25 10:58:42;;;;;;;1.20;1.10;;;16.90;49.70;;;;;;5053043;28;20209;-72
2024/02/25 11:01:09;;;;;;;1.23;1.13;;;16.90;49.50;;;;;;5053571;28;20430;-72
2024/02/25 11:03:36;;;;;;;1.50;1.30;;;17.20;48.80;;;;;;5053680;28;20173;-72
2024/02/25 11:06:05;;;;;;;1.20;1.10;;;17.00;48.90;;;;;;5052680;28;20493;-72
2024/02/25 11:08:34;;;;;;;1.27;1.27;;;17.00;48.70;;;;;;5052783;28;20515;-71
2024/02/25 11:11:00;;;;;;;1.40;1.20;;;17.30;49.00;;;;;;5053536;28;20423;-72
2024/02/25 11:13:26;;;;;;;1.20;1.10;;;17.40;48.50;;;;;;5053443;28;20433;-71
2024/02/25 11:15:55;;;;;;;1.80;1.70;;;17.60;47.90;;;;;;5053509;28;20508;-72
2024/02/25 11:18:29;;;;;;;2.07;1.40;;;17.60;47.60;;;;;;5052662;28;20519;-71
2024/02/25 11:21:05;;;;;;;1.30;1.20;;;18.90;45.70;;;;;;5053322;28;20419;-71
2024/02/25 11:23:46;;;;;;;1.40;1.30;;;17.40;46.10;;;;;;5053372;28;20423;-73
2024/02/25 11:26:34;;;;;;;1.50;1.40;;;18.50;46.70;;;;;;5053273;28;20416;-73
2024/02/25 11:29:18;;;;;;;1.40;1.30;;;18.60;43.80;;;;;;5052998;28;20455;-73
2024/02/25 11:31:58;;;;;;;1.33;1.23;;;18.50;43.30;;;;;;5053200;28;20825;-71
2024/02/25 11:34:28;;;;;;;1.70;1.40;;;18.90;45.20;;;;;;5053138;28;20466;-71
2024/02/25 11:37:04;;;;;;;1.40;1.23;;;20.60;41.40;;;;;;5052341;28;20412;-71
2024/02/25 11:39:34;;;;;;;2.87;1.83;;;19.30;40.20;;;;;;5052914;28;20446;-73
2024/02/25 11:42:00;;;;;;;1.20;1.10;;;18.40;42.10;;;;;;5052994;28;20420;-73
2024/02/25 11:44:31;;;;;;;1.57;1.30;;;17.80;42.50;;;;;;5053021;28;20416;-71
2024/02/25 11:47:05;;;;;;;2.13;1.93;;;17.80;42.80;;;;;;5052193;28;20423;-71
2024/02/25 11:49:32;;;;;;;1.97;1.73;;;18.80;43.00;;;;;;5052761;28;20508;-71
2024/02/25 11:51:59;;;;;;;1.57;1.47;;;20.30;40.80;;;;;;5052678;28;20427;-73
2024/02/25 11:54:29;;;;;;;3.80;1.73;;;21.30;37.90;;;;;;5052455;28;20408;-71
2024/02/25 11:56:54;;;;;;;1.67;1.30;;;21.50;36.70;;;;;;5051371;28;20412;-71
2024/02/25 11:59:21;;;;;;;1.20;1.10;;;21.50;35.40;;;;;;5052572;28;20534;-71
2024/02/25 12:01:50;;;;;;;1.57;1.47;;;21.50;34.50;;;;;;5053144;28;20177;-71
2024/02/25 12:04:18;;;;;;;1.37;1.27;;;22.30;34.60;;;;;;5051557;28;20418;-71
2024/02/25 12:06:44;;;;;;;1.30;1.20;;;22.60;33.00;;;;;;5051942;28;20404;-71
2024/02/25 12:09:13;;;;;;;2.00;1.17;;;23.80;31.80;;;;;;5052574;28;20474;-71
2024/02/25 12:11:38;;;;;;;1.10;1.00;;;23.70;29.70;;;;;;5052582;28;20443;-71
2024/02/25 12:14:17;;;;;;;1.17;0.97;;;20.70;30.00;;;;;;5052441;28;20803;-73
2024/02/25 12:16:44;;;;;;;1.93;1.83;;;19.10;32.50;;;;;;5051615;28;20250;-72
2024/02/25 12:19:11;;;;;;;1.30;1.20;;;19.10;32.50;;;;;;5052237;28;20439;-73
2024/02/25 12:21:37;;;;;;;1.17;1.07;;;18.90;33.60;;;;;;5052166;28;20435;-72
2024/02/25 12:24:04;;;;;;;0.90;0.90;;;18.90;33.30;;;;;;5052145;28;20428;-73
2024/02/25 12:26:57;;;;;;;1.00;0.90;;;18.90;33.00;;;;;;5051532;28;20227;-73
2024/02/25 12:29:29;;;;;;;1.30;1.20;;;18.20;33.30;;;;;;5051977;28;20490;-71
2024/02/25 12:31:55;;;;;;;1.23;0.80;;;16.60;33.40;;;;;;5052164;28;20420;-71
2024/02/25 12:34:20;;;;;;;1.47;1.37;;;15.40;35.10;;;;;;5052174;28;20416;-71
2024/02/25 12:36:47;;;;;;;1.67;1.57;;;15.60;36.50;;;;;;5051363;28;20806;-71
2024/02/25 12:39:20;;;;;;;1.43;1.33;;;16.40;36.30;;;;;;5051922;28;20229;-72
2024/02/25 12:41:58;;;;;;;1.13;1.03;;;18.90;33.60;;;;;;5052025;28;20916;-72
2024/02/25 12:44:25;;;;;;;3.43;3.13;;;20.20;32.00;;;;;;5052009;28;20420;-72
2024/02/25 12:46:51;;;;;;;2.87;2.60;;;19.70;30.40;;;;;;5051216;28;20446;-71
2024/02/25 12:49:17;;;;;;;2.10;1.40;;;18.90;30.60;;;;;;5050533;28;20464;-71
2024/02/25 12:51:43;;;;;;;1.50;1.40;;;18.90;30.60;;;;;;5051911;28;20493;-72
2024/02/25 12:54:11;;;;;;;1.60;1.50;;;19.50;29.90;;;;;;5051877;28;20536;-72